createdAt,value
2023-05-24T00:01:26.619Z,100273.85
2023-05-24T00:03:59.454Z,100278.09
2023-05-24T00:06:27.658Z,100280.91
2023-05-24T00:08:55.633Z,100280.03
2023-05-24T00:11:23.359Z,100284.73
2023-05-24T00:13:53.895Z,100287.20
2023-05-24T00:16:22.047Z,100290.64
2023-05-24T00:18:49.949Z,100290.19
2023-05-24T00:21:17.940Z,100293.21
2023-05-24T00:23:45.648Z,100291.86
2023-05-24T00:26:13.589Z,100292.96
2023-05-24T00:28:41.494Z,100292.94
2023-05-24T00:31:09.375Z,100291.88
2023-05-24T00:33:37.062Z,100293.54
2023-05-24T00:36:05.005Z,100299.65
2023-05-24T00:38:32.764Z,100302.78
2023-05-24T00:41:01.495Z,100302.92
2023-05-24T00:43:29.380Z,100303.19
2023-05-24T00:46:20.895Z,100300.20
2023-05-24T00:48:49.844Z,100305.80
2023-05-24T00:51:18.352Z,100306.30
2023-05-24T00:53:49.149Z,100310.19
2023-05-24T00:56:17.661Z,100316.29
2023-05-24T00:58:46.145Z,100327.80
2023-05-24T01:01:14.506Z,100324.88
2023-05-24T01:03:42.597Z,100327.75
2023-05-24T01:06:10.824Z,100324.56
2023-05-24T01:08:49.053Z,100331.84
2023-05-24T01:11:28.870Z,100332.51
2023-05-24T01:14:15.031Z,100335.00
2023-05-24T01:16:53.343Z,100340.16
2023-05-24T01:19:43.586Z,100343.45
2023-05-24T01:22:30.646Z,100343.71
2023-05-24T01:25:14.745Z,100352.16
2023-05-24T01:27:43.458Z,100353.45
2023-05-24T01:30:12.023Z,100354.63
2023-05-24T01:32:40.192Z,100357.16
2023-05-24T01:35:08.697Z,100356.88
2023-05-24T01:37:36.444Z,100360.20
2023-05-24T01:40:05.044Z,100364.72
2023-05-24T01:42:36.220Z,100364.08
2023-05-24T01:45:11.791Z,100362.13
2023-05-24T01:48:03.370Z,100366.27
2023-05-24T01:50:39.368Z,100363.23
2023-05-24T01:53:09.704Z,100371.10
2023-05-24T01:55:37.942Z,100373.63
2023-05-24T01:58:06.855Z,100378.85
2023-05-24T02:00:35.636Z,100390.35
2023-05-24T02:03:04.131Z,100398.17
2023-05-24T02:05:35.318Z,100396.73
2023-05-24T02:08:04.082Z,100399.43
2023-05-24T02:10:32.308Z,100411.70
2023-05-24T02:13:00.053Z,100415.66
2023-05-24T02:15:30.665Z,100415.46
2023-05-24T02:17:58.985Z,100419.48
2023-05-24T02:20:28.773Z,100420.85
2023-05-24T02:22:58.801Z,100423.31
2023-05-24T02:25:26.917Z,100428.94
2023-05-24T02:27:54.832Z,100429.59
2023-05-24T02:30:22.671Z,100431.77
2023-05-24T02:32:50.873Z,100435.79
2023-05-24T02:35:19.128Z,100434.00
2023-05-24T02:37:47.118Z,100437.85
2023-05-24T02:40:14.973Z,100438.67
2023-05-24T02:42:43.018Z,100440.92
2023-05-24T02:45:11.383Z,100441.17
2023-05-24T02:47:39.254Z,100445.88
2023-05-24T02:50:07.912Z,100446.35
2023-05-24T02:52:36.564Z,100445.23
2023-05-24T02:55:09.253Z,100446.14
2023-05-24T02:57:38.459Z,100446.67
2023-05-24T03:00:09.802Z,100450.10
2023-05-24T03:02:38.918Z,100452.46
2023-05-24T03:05:08.086Z,100455.52
2023-05-24T03:07:36.089Z,100456.15
2023-05-24T03:10:04.228Z,100465.48
2023-05-24T03:12:32.116Z,100471.14
2023-05-24T03:14:59.892Z,100479.75
2023-05-24T03:17:27.868Z,100480.26
2023-05-24T03:19:55.741Z,100481.01
2023-05-24T03:22:23.676Z,100475.80
2023-05-24T03:24:51.473Z,100477.42
2023-05-24T03:27:20.300Z,100474.96
2023-05-24T03:29:48.067Z,100480.09
2023-05-24T03:32:16.084Z,100483.48
2023-05-24T03:34:43.781Z,100483.40
2023-05-24T03:37:11.778Z,100484.91
2023-05-24T03:39:39.838Z,100486.56
2023-05-24T03:42:07.943Z,100486.73
2023-05-24T03:44:35.764Z,100485.84
2023-05-24T03:47:04.304Z,100491.97
2023-05-24T03:49:32.156Z,100487.23
2023-05-24T03:52:00.019Z,100487.88
2023-05-24T03:54:28.038Z,100486.84
2023-05-24T03:56:56.007Z,100487.91
2023-05-24T03:59:23.893Z,100488.12
2023-05-24T04:01:51.738Z,100489.15
2023-05-24T04:04:19.749Z,100489.41
2023-05-24T04:06:48.060Z,100488.36
2023-05-24T04:09:16.555Z,100489.63
2023-05-24T04:11:44.304Z,100492.60
2023-05-24T04:14:12.315Z,100496.25
2023-05-24T04:16:41.934Z,100497.64
2023-05-24T04:19:09.844Z,100502.63
2023-05-24T04:21:38.086Z,100507.60
2023-05-24T04:24:06.934Z,100506.92
2023-05-24T04:26:35.003Z,100515.95
2023-05-24T04:29:04.043Z,100519.05
2023-05-24T04:31:33.561Z,100518.07
2023-05-24T04:34:03.058Z,100520.03
2023-05-24T04:36:34.088Z,100518.13
2023-05-24T04:39:05.356Z,100516.16
2023-05-24T04:41:35.400Z,100520.02
2023-05-24T04:44:03.355Z,100517.99
2023-05-24T04:46:31.683Z,100526.23
2023-05-24T04:48:59.695Z,100528.72
2023-05-24T04:51:27.644Z,100530.60
2023-05-24T04:53:55.570Z,100529.78
2023-05-24T04:56:23.328Z,100529.84
2023-05-24T04:58:51.778Z,100531.92
2023-05-24T05:01:20.425Z,100528.42
2023-05-24T05:03:48.438Z,100531.48
2023-05-24T05:06:16.251Z,100532.67
2023-05-24T05:08:44.184Z,100535.35
2023-05-24T05:11:14.101Z,100537.00
2023-05-24T05:13:43.247Z,100540.28
2023-05-24T05:16:11.220Z,100539.32
2023-05-24T05:18:39.167Z,100538.15
2023-05-24T05:21:07.416Z,100544.77
2023-05-24T05:23:36.608Z,100548.83
2023-05-24T05:26:04.458Z,100549.03
2023-05-24T05:28:32.999Z,100551.95
2023-05-24T05:31:01.241Z,100562.58
2023-05-24T05:33:29.191Z,100569.48
2023-05-24T05:35:57.034Z,100575.89
2023-05-24T05:38:24.938Z,100575.66
2023-05-24T05:40:52.870Z,100582.08
2023-05-24T05:43:21.059Z,100588.00
2023-05-24T05:45:48.799Z,100592.27
2023-05-24T05:48:16.743Z,100599.09
2023-05-24T05:50:44.684Z,100601.95
2023-05-24T05:53:12.703Z,100600.92
2023-05-24T05:55:40.538Z,100602.44
2023-05-24T05:58:08.698Z,100604.89
2023-05-24T06:00:39.224Z,100602.59
2023-05-24T06:03:07.069Z,100601.82
2023-05-24T06:05:34.908Z,100603.67
2023-05-24T06:08:02.812Z,100608.02
2023-05-24T06:10:30.597Z,100606.98
2023-05-24T06:12:58.593Z,100610.41
2023-05-24T06:15:26.497Z,100613.53
2023-05-24T06:17:55.454Z,100610.30
2023-05-24T06:20:23.430Z,100612.66
2023-05-24T06:22:51.406Z,100612.20
2023-05-24T06:25:21.184Z,100615.44
2023-05-24T06:27:49.410Z,100621.21
2023-05-24T06:30:18.098Z,100626.61
2023-05-24T06:32:46.233Z,100628.08
2023-05-24T06:35:14.506Z,100631.91
2023-05-24T06:37:42.438Z,100636.17
2023-05-24T06:40:10.717Z,100634.63
2023-05-24T06:42:39.399Z,100632.85
2023-05-24T06:45:08.517Z,100638.84
2023-05-24T06:47:37.395Z,100646.88
2023-05-24T06:50:06.076Z,100648.41
2023-05-24T06:52:33.897Z,100650.74
2023-05-24T06:55:01.829Z,100654.65
2023-05-24T06:57:30.224Z,100659.48
2023-05-24T06:59:58.113Z,100663.02
2023-05-24T07:02:27.418Z,100667.92
2023-05-24T07:04:55.723Z,100671.31
2023-05-24T07:07:23.633Z,100678.33
2023-05-24T07:09:52.204Z,100683.55
2023-05-24T07:12:20.034Z,100682.52
2023-05-24T07:14:48.009Z,100683.72
2023-05-24T07:17:16.296Z,100686.34
2023-05-24T07:19:44.473Z,100689.64
2023-05-24T07:22:12.761Z,100686.96
2023-05-24T07:24:40.704Z,100692.32
2023-05-24T07:27:08.951Z,100693.20
2023-05-24T07:29:36.956Z,100694.35
2023-05-24T07:32:05.173Z,100699.93
2023-05-24T07:34:33.113Z,100699.33
2023-05-24T07:37:04.207Z,100705.47
2023-05-24T07:39:32.370Z,100710.00
2023-05-24T07:42:00.513Z,100714.20
2023-05-24T07:44:29.939Z,100718.98
2023-05-24T07:46:57.778Z,100718.85
2023-05-24T07:49:25.624Z,100727.06
2023-05-24T07:51:54.178Z,100727.27
2023-05-24T07:54:22.406Z,100727.91
2023-05-24T07:56:50.440Z,100728.94
2023-05-24T07:59:19.423Z,100726.63
2023-05-24T08:01:48.139Z,100727.85
2023-05-24T08:04:16.423Z,100734.04
2023-05-24T08:06:46.934Z,100735.16
2023-05-24T08:09:14.934Z,100738.76
2023-05-24T08:11:43.026Z,100742.36
2023-05-24T08:14:11.004Z,100743.98
2023-05-24T08:16:39.006Z,100747.50
2023-05-24T08:19:07.235Z,100748.05
2023-05-24T08:21:35.358Z,100749.77
2023-05-24T08:24:03.654Z,100744.41
2023-05-24T08:26:32.281Z,100744.08
2023-05-24T08:29:00.204Z,100742.51
2023-05-24T08:31:28.009Z,100740.92
2023-05-24T08:33:58.080Z,100737.20
2023-05-24T08:36:26.188Z,100737.30
2023-05-24T08:38:53.938Z,100737.44
2023-05-24T08:41:22.888Z,100738.27
2023-05-24T08:43:51.461Z,100739.41
2023-05-24T08:46:19.295Z,100741.38
2023-05-24T08:48:48.149Z,100744.41
2023-05-24T08:51:16.755Z,100748.86
2023-05-24T08:53:48.987Z,100751.77
2023-05-24T08:56:18.508Z,100750.66
2023-05-24T08:58:47.366Z,100751.48
2023-05-24T09:01:17.179Z,100751.73
2023-05-24T09:03:47.518Z,100752.38
2023-05-24T09:06:19.462Z,100753.80
2023-05-24T09:08:47.729Z,100754.45
2023-05-24T09:11:16.587Z,100758.11
2023-05-24T09:13:45.915Z,100754.56
2023-05-24T09:16:15.390Z,100756.48
2023-05-24T09:18:43.321Z,100759.75
2023-05-24T09:21:12.274Z,100762.96
2023-05-24T09:23:41.681Z,100767.15
2023-05-24T09:26:11.744Z,100767.42
2023-05-24T09:28:41.786Z,100765.14
2023-05-24T09:31:09.863Z,100762.00
2023-05-24T09:33:39.314Z,100764.13
2023-05-24T09:36:07.615Z,100767.97
2023-05-24T09:38:36.760Z,100769.42
2023-05-24T09:41:07.173Z,100765.95
2023-05-24T09:43:47.882Z,100768.71
2023-05-24T09:46:20.258Z,100767.93
2023-05-24T09:48:58.934Z,100761.09
2023-05-24T09:51:27.221Z,100753.57
2023-05-24T09:54:01.490Z,100754.76
2023-05-24T09:56:30.909Z,100759.73
2023-05-24T09:58:58.857Z,100767.73
2023-05-24T10:01:28.386Z,100767.91
2023-05-24T10:03:58.933Z,100767.20
2023-05-24T10:06:26.997Z,100772.44
2023-05-24T10:08:55.825Z,100773.89
2023-05-24T10:11:24.650Z,100776.45
2023-05-24T10:13:52.947Z,100776.59
2023-05-24T10:16:20.982Z,100778.64
2023-05-24T10:18:50.667Z,100783.52
2023-05-24T10:21:20.217Z,100783.96
2023-05-24T10:23:51.491Z,100786.16
2023-05-24T10:26:20.039Z,100784.85
2023-05-24T10:28:53.453Z,100786.30
2023-05-24T10:31:28.522Z,100786.79
2023-05-24T10:34:06.556Z,100790.11
2023-05-24T10:36:37.171Z,100788.14
2023-05-24T10:39:05.434Z,100790.16
2023-05-24T10:41:40.608Z,100790.83
2023-05-24T10:44:16.588Z,100793.52
2023-05-24T10:47:03.948Z,100795.02
2023-05-24T10:49:31.932Z,100802.34
2023-05-24T10:52:08.313Z,100797.92
2023-05-24T10:54:39.965Z,100799.20
2023-05-24T10:57:11.053Z,100801.61
2023-05-24T10:59:39.999Z,100799.81
2023-05-24T11:02:15.152Z,100800.48
2023-05-24T11:04:47.161Z,100801.43
2023-05-24T11:07:16.288Z,100800.64
2023-05-24T11:09:52.879Z,100798.12
2023-05-24T11:12:21.651Z,100800.65
2023-05-24T11:14:53.716Z,100801.30
2023-05-24T11:17:23.281Z,100801.95
2023-05-24T11:19:55.888Z,100803.71
2023-05-24T11:22:25.478Z,100806.40
2023-05-24T11:24:53.949Z,100806.88
2023-05-24T11:27:21.934Z,100812.79
2023-05-24T11:29:50.024Z,100808.93
2023-05-24T11:32:20.402Z,100805.70
2023-05-24T11:34:49.726Z,100807.89
2023-05-24T11:37:18.929Z,100812.27
2023-05-24T11:39:54.136Z,100805.38
2023-05-24T11:42:25.569Z,100808.45
2023-05-24T11:44:53.977Z,100812.09
2023-05-24T11:47:25.122Z,100811.98
2023-05-24T11:49:53.162Z,100808.38
2023-05-24T11:52:21.483Z,100808.31
2023-05-24T11:54:50.238Z,100808.12
2023-05-24T11:57:19.958Z,100806.48
2023-05-24T11:59:48.470Z,100809.86
2023-05-24T12:02:16.933Z,100812.29
2023-05-24T12:04:46.149Z,100814.34
2023-05-24T12:07:15.895Z,100814.48
2023-05-24T12:09:44.049Z,100810.80
2023-05-24T12:12:11.977Z,100811.79
2023-05-24T12:14:40.073Z,100813.82
2023-05-24T12:17:16.478Z,100816.87
2023-05-24T12:19:44.902Z,100806.81
2023-05-24T12:22:13.047Z,100807.98
2023-05-24T12:24:41.529Z,100805.81
2023-05-24T12:27:10.999Z,100802.74
2023-05-24T12:29:42.007Z,100802.23
2023-05-24T12:32:15.139Z,100804.08
2023-05-24T12:34:44.811Z,100806.63
2023-05-24T12:37:15.551Z,100805.34
2023-05-24T12:39:44.777Z,100808.48
2023-05-24T12:42:13.896Z,100802.20
2023-05-24T12:44:42.516Z,100804.16
2023-05-24T12:47:10.757Z,100806.38
2023-05-24T12:49:38.914Z,100807.79
2023-05-24T12:52:07.216Z,100812.02
2023-05-24T12:54:35.114Z,100807.14
2023-05-24T12:57:03.802Z,100807.66
2023-05-24T12:59:32.898Z,100811.88
2023-05-24T13:02:00.810Z,100806.80
2023-05-24T13:04:30.690Z,100805.13
2023-05-24T13:06:58.801Z,100810.27
2023-05-24T13:09:27.276Z,100806.88
2023-05-24T13:11:55.967Z,100809.02
2023-05-24T13:14:24.133Z,100801.29
2023-05-24T13:16:52.701Z,100797.24
2023-05-24T13:19:20.865Z,100800.65
2023-05-24T13:21:49.011Z,100802.02
2023-05-24T13:24:17.621Z,100799.77
2023-05-24T13:26:45.699Z,100798.01
2023-05-24T13:31:45.477Z,100799.64
2023-05-24T13:34:13.912Z,100799.77
2023-05-24T13:36:43.728Z,100805.42
2023-05-24T13:39:16.260Z,100801.90
2023-05-24T13:41:45.360Z,100805.77
2023-05-24T13:44:14.942Z,100805.27
2023-05-24T13:46:43.430Z,100807.66
2023-05-24T13:49:12.238Z,100812.41
2023-05-24T13:51:40.655Z,100808.85
2023-05-24T13:54:08.712Z,100808.80
2023-05-24T13:56:37.210Z,100807.52
2023-05-24T13:59:06.411Z,100804.31
2023-05-24T14:01:36.262Z,100805.75
2023-05-24T14:04:05.319Z,100804.20
2023-05-24T14:06:34.073Z,100807.45
2023-05-24T14:09:02.057Z,100802.56
2023-05-24T14:11:31.937Z,100801.41
2023-05-24T14:16:31.727Z,100800.23
2023-05-24T14:18:59.794Z,100802.70
2023-05-24T14:21:28.005Z,100800.04
2023-05-24T14:23:55.945Z,100796.61
2023-05-24T14:26:24.086Z,100797.17
2023-05-24T14:28:56.034Z,100793.45
2023-05-24T14:31:24.841Z,100792.08
2023-05-24T14:33:53.318Z,100791.49
2023-05-24T14:36:21.393Z,100793.13
2023-05-24T14:38:49.233Z,100792.08
2023-05-24T14:41:17.387Z,100790.91
2023-05-24T14:43:45.305Z,100793.91
2023-05-24T14:46:13.250Z,100791.39
2023-05-24T14:48:41.770Z,100793.23
2023-05-24T14:51:09.830Z,100788.36
2023-05-24T14:53:37.949Z,100789.02
2023-05-24T14:56:08.545Z,100791.91
2023-05-24T14:58:36.581Z,100794.27
2023-05-24T15:01:04.679Z,100792.80
2023-05-24T15:03:33.086Z,100795.42
2023-05-24T15:06:01.692Z,100801.23
2023-05-24T15:08:29.816Z,100803.45
2023-05-24T15:10:58.991Z,100804.56
2023-05-24T15:13:27.125Z,100803.73
2023-05-24T15:15:56.820Z,100798.95
2023-05-24T15:18:27.636Z,100797.30
2023-05-24T15:20:56.390Z,100795.94
2023-05-24T15:23:24.662Z,100795.29
2023-05-24T15:25:52.759Z,100803.16
2023-05-24T15:28:21.205Z,100801.28
2023-05-24T15:30:49.303Z,100802.39
2023-05-24T15:33:17.245Z,100803.16
2023-05-24T15:35:45.605Z,100800.38
2023-05-24T15:38:14.223Z,100794.36
2023-05-24T15:40:42.570Z,100796.48
2023-05-24T15:43:11.171Z,100787.00
2023-05-24T15:45:39.080Z,100788.14
2023-05-24T15:48:06.946Z,100788.48
2023-05-24T15:50:57.385Z,100790.08
2023-05-24T15:53:23.380Z,100786.23
2023-05-24T15:55:51.796Z,100783.54
2023-05-24T15:58:19.553Z,100788.55
2023-05-24T16:00:47.446Z,100784.73
2023-05-24T16:03:16.197Z,100788.96
2023-05-24T16:05:44.250Z,100790.77
2023-05-24T16:08:13.363Z,100794.41
2023-05-24T16:10:41.687Z,100796.96
2023-05-24T16:13:11.306Z,100796.14
2023-05-24T16:15:41.809Z,100798.46
2023-05-24T16:18:10.156Z,100803.03
2023-05-24T16:20:38.245Z,100805.97
2023-05-24T16:23:06.344Z,100803.50
2023-05-24T16:25:34.300Z,100801.50
2023-05-24T16:28:03.887Z,100803.70
2023-05-24T16:30:32.071Z,100804.86
2023-05-24T16:33:00.297Z,100807.63
2023-05-24T16:35:28.684Z,100809.72
2023-05-24T16:37:56.780Z,100806.72
2023-05-24T16:40:24.649Z,100808.58
2023-05-24T16:42:54.430Z,100814.36
2023-05-24T16:45:22.549Z,100814.63
2023-05-24T16:47:51.197Z,100820.58
2023-05-24T16:50:19.550Z,100820.91
2023-05-24T16:52:48.672Z,100824.79
2023-05-24T16:55:16.597Z,100828.71
2023-05-24T16:57:44.690Z,100828.86
2023-05-24T17:00:13.016Z,100828.57
2023-05-24T17:02:40.958Z,100832.22
2023-05-24T17:05:09.704Z,100833.35
2023-05-24T17:07:37.536Z,100837.08
2023-05-24T17:10:06.445Z,100840.17
2023-05-24T17:12:34.469Z,100844.03
2023-05-24T17:15:02.563Z,100842.06
2023-05-24T17:17:30.490Z,100844.42
2023-05-24T17:19:58.288Z,100846.19
2023-05-24T17:22:26.321Z,100848.11
2023-05-24T17:24:54.549Z,100846.68
2023-05-24T17:27:22.767Z,100848.77
2023-05-24T17:29:51.009Z,100850.04
2023-05-24T17:32:19.232Z,100853.50
2023-05-24T17:34:47.555Z,100861.14
2023-05-24T17:37:15.825Z,100865.40
2023-05-24T17:39:43.720Z,100867.69
2023-05-24T17:42:12.505Z,100869.63
2023-05-24T17:44:40.722Z,100869.25
2023-05-24T17:47:09.170Z,100874.10
2023-05-24T17:49:37.422Z,100872.48
2023-05-24T17:52:05.478Z,100872.15
2023-05-24T17:54:33.841Z,100876.13
2023-05-24T17:57:03.051Z,100874.98
2023-05-24T17:59:31.705Z,100877.84
2023-05-24T18:01:59.931Z,100884.01
2023-05-24T18:04:27.905Z,100888.73
2023-05-24T18:06:56.760Z,100888.65
2023-05-24T18:09:24.801Z,100893.26
2023-05-24T18:11:53.108Z,100895.35
2023-05-24T18:14:21.061Z,100900.62
2023-05-24T18:16:49.503Z,100907.16
2023-05-24T18:19:17.777Z,100905.67
2023-05-24T18:21:47.039Z,100909.96
2023-05-24T18:24:15.093Z,100910.38
2023-05-24T18:26:44.234Z,100910.81
2023-05-24T18:29:14.582Z,100911.04
2023-05-24T18:31:42.690Z,100915.27
2023-05-24T18:34:11.311Z,100919.05
2023-05-24T18:36:39.654Z,100919.83
2023-05-24T18:39:07.872Z,100925.98
2023-05-24T18:41:35.689Z,100931.08
2023-05-24T18:44:03.679Z,100934.80
2023-05-24T18:46:33.248Z,100941.77
2023-05-24T18:49:03.230Z,100944.70
2023-05-24T18:51:32.059Z,100942.61
2023-05-24T18:54:00.241Z,100949.45
2023-05-24T18:56:28.338Z,100945.76
2023-05-24T18:58:58.785Z,100947.54
2023-05-24T19:01:28.416Z,100950.59
2023-05-24T19:03:57.213Z,100954.20
2023-05-24T19:06:25.487Z,100953.23
2023-05-24T19:08:53.285Z,100959.09
2023-05-24T19:11:21.689Z,100959.48
2023-05-24T19:13:49.622Z,100960.05
2023-05-24T19:16:18.643Z,100967.00
2023-05-24T19:18:47.007Z,100966.48
2023-05-24T19:21:15.044Z,100963.36
2023-05-24T19:23:44.139Z,100966.63
2023-05-24T19:26:12.690Z,100966.23
2023-05-24T19:28:42.254Z,100964.20
2023-05-24T19:31:10.020Z,100965.10
2023-05-24T19:33:48.518Z,100964.34
2023-05-24T19:36:27.384Z,100969.28
2023-05-24T19:38:55.680Z,100971.59
2023-05-24T19:41:23.894Z,100971.80
2023-05-24T19:43:56.084Z,100969.23
2023-05-24T19:46:25.127Z,100968.61
2023-05-24T19:48:53.374Z,100969.45
2023-05-24T19:51:21.567Z,100969.85
2023-05-24T19:53:50.457Z,100970.37
2023-05-24T19:56:19.599Z,100968.48
2023-05-24T19:58:50.439Z,100967.66
2023-05-24T20:01:18.397Z,100968.16
2023-05-24T20:03:48.745Z,100971.09
2023-05-24T20:06:18.227Z,100972.11
2023-05-24T20:08:46.752Z,100969.27
2023-05-24T20:11:15.228Z,100969.62
2023-05-24T20:13:43.058Z,100971.34
2023-05-24T20:16:11.356Z,100972.58
2023-05-24T20:18:39.495Z,100976.08
2023-05-24T20:21:08.351Z,100977.46
2023-05-24T20:23:36.378Z,100980.45
2023-05-24T20:26:04.302Z,100980.92
2023-05-24T20:28:33.319Z,100984.30
2023-05-24T20:31:02.076Z,100988.46
2023-05-24T20:33:30.488Z,100984.34
2023-05-24T20:35:59.354Z,100985.98
2023-05-24T20:38:27.693Z,100990.02
2023-05-24T20:40:55.797Z,100992.55
2023-05-24T20:43:24.493Z,100995.46
2023-05-24T20:45:54.216Z,101000.88
2023-05-24T20:48:23.360Z,101004.00
2023-05-24T20:50:51.659Z,101002.73
2023-05-24T20:53:19.681Z,101003.42
2023-05-24T20:55:47.708Z,101003.55
2023-05-24T20:58:17.502Z,101007.81
2023-05-24T21:00:45.968Z,101008.66
2023-05-24T21:03:14.670Z,101011.94
2023-05-24T21:05:42.932Z,101013.31
2023-05-24T21:08:11.139Z,101010.56
2023-05-24T21:10:38.908Z,101012.54
2023-05-24T21:13:07.112Z,101015.54
2023-05-24T21:15:35.541Z,101021.76
2023-05-24T21:18:04.105Z,101024.76
2023-05-24T21:20:32.093Z,101030.23
2023-05-24T21:23:00.602Z,101034.06
2023-05-24T21:25:28.535Z,101035.27
2023-05-24T21:27:56.480Z,101036.80
2023-05-24T21:30:24.449Z,101041.31
2023-05-24T21:32:52.296Z,101038.77
2023-05-24T21:35:20.167Z,101048.20
2023-05-24T21:37:48.424Z,101051.31
2023-05-24T21:40:16.267Z,101052.77
2023-05-24T21:42:44.773Z,101052.73
2023-05-24T21:45:13.011Z,101053.70
2023-05-24T21:47:42.418Z,101053.52
2023-05-24T21:50:10.705Z,101055.83
2023-05-24T21:52:39.481Z,101053.98
2023-05-24T21:55:07.584Z,101051.19
2023-05-24T21:57:35.582Z,101055.58
2023-05-24T22:00:04.369Z,101062.46
2023-05-24T22:02:32.526Z,101056.40
2023-05-24T22:05:01.552Z,101058.72
2023-05-24T22:07:29.432Z,101065.02
2023-05-24T22:09:57.425Z,101064.23
2023-05-24T22:12:25.220Z,101066.81
2023-05-24T22:14:53.223Z,101064.72
2023-05-24T22:17:22.074Z,101068.45
2023-05-24T22:19:50.173Z,101069.84
2023-05-24T22:22:19.863Z,101071.05
2023-05-24T22:24:48.296Z,101072.88
2023-05-24T22:27:17.100Z,101071.25
2023-05-24T22:29:45.044Z,101066.69
2023-05-24T22:32:13.415Z,101066.52
2023-05-24T22:34:41.577Z,101064.02
2023-05-24T22:37:09.416Z,101060.94
2023-05-24T22:39:37.633Z,101059.84
2023-05-24T22:42:05.894Z,101060.03
2023-05-24T22:44:35.856Z,101061.27
2023-05-24T22:47:04.202Z,101058.65
2023-05-24T22:49:35.846Z,101066.39
2023-05-24T22:52:05.374Z,101060.31
2023-05-24T22:54:33.418Z,101059.92
2023-05-24T22:57:02.539Z,101061.43
2023-05-24T22:59:32.628Z,101058.94
2023-05-24T23:02:01.008Z,101055.80
2023-05-24T23:04:29.104Z,101059.29
2023-05-24T23:06:57.289Z,101061.70
2023-05-24T23:09:35.075Z,101065.33
2023-05-24T23:12:08.134Z,101065.35
2023-05-24T23:14:41.760Z,101066.61
2023-05-24T23:17:13.590Z,101067.63
2023-05-24T23:19:43.268Z,101068.77
2023-05-24T23:22:13.092Z,101065.84
2023-05-24T23:25:38.114Z,101065.33
2023-05-24T23:28:11.093Z,101062.47
2023-05-24T23:30:38.968Z,101065.95
2023-05-24T23:33:07.030Z,101067.00
2023-05-24T23:35:34.986Z,101072.95
2023-05-24T23:38:02.911Z,101073.03
2023-05-24T23:40:30.734Z,101076.46
2023-05-24T23:42:58.742Z,101073.39
2023-05-24T23:45:26.671Z,101072.17
2023-05-24T23:47:54.446Z,101074.46
2023-05-24T23:50:22.826Z,101074.58
2023-05-24T23:52:51.476Z,101071.73
2023-05-24T23:55:19.357Z,101072.99
2023-05-24T23:57:49.033Z,101076.89
